Latest Weather Observations for Roebourne Airport

IDW60801

Issued at 9:33 am WST Wednesday 27 May 2015 (issued every 30 minutes, with the page automatically refreshed every 10 minutes)

About weather observations | Map of weather stations | Latest weather observations for WA | Other Formats
Station Details ID: 004090 Name: ROEBOURNE AERO Lat: -20.76 Lon: 117.16 Height: 10.7 m
Data from the previous 72 hours. | See also: Recent months at Roebourne Airport
Date/Time
WST
Temp
°C
App
Temp
°C
Dew
Point
Rel
Hum
%
Delta-T
°C
Wind Press
QNH
hPa
Press
MSL
hPa
Rain
since 9 am
mm
Dir
 
Spd
km/h
Gust
km/h
Spd
kts
Gust
kts
27/09:30am 18.3 18.4 18.3 100 0.0 ESE 15 20 8 11 1017.1 1017.0 3.2
27/09:00am 18.8 20.3 18.8 100 0.0 ESE 9 13 5 7 1017.3 1017.2 7.2
27/08:30am 18.4 18.9 18.4 100 0.0 ESE 13 17 7 9 1016.8 1016.7 7.2
27/08:00am 18.2 18.2 18.2 100 0.0 SE 15 19 8 10 1016.4 1016.3 6.2
27/07:30am 18.3 18.8 18.3 100 0.0 ESE 13 19 7 10 1016.2 1016.1 5.2
27/07:00am 18.4 19.2 18.2 99 0.1 SE 11 15 6 8 1016.1 1016.0 3.6
27/06:30am 18.6 18.7 18.3 98 0.2 ESE 15 19 8 10 1015.8 1015.7 1.8
27/06:00am 19.1 19.0 17.9 93 0.7 ESE 15 22 8 12 1015.7 1015.6 0.2
27/05:30am 20.2 19.3 16.8 81 2.1 ESE 17 24 9 13 1015.2 1015.1 0.0
27/05:00am 20.3 19.3 16.7 80 2.2 ESE 17 20 9 11 1014.9 1014.8 0.0
27/04:30am 20.5 19.1 16.5 78 2.4 ESE 19 24 10 13 1015.0 1014.9 0.0
27/04:00am 20.2 19.4 17.0 82 1.9 SE 17 20 9 11 1014.9 1014.8 0.0
27/03:30am 19.3 19.6 17.8 91 0.9 ESE 13 15 7 8 1015.1 1015.0 0.0
27/03:00am 19.5 19.8 17.8 90 1.0 E 13 17 7 9 1015.2 1015.1 0.0
27/02:30am 19.6 19.9 17.9 90 1.0 ESE 13 15 7 8 1015.4 1015.3 0.0
27/02:00am 19.3 20.0 18.0 92 0.8 ESE 11 13 6 7 1015.8 1015.7 0.0
27/01:30am 19.2 19.9 17.9 92 0.8 ESE 11 15 6 8 1015.8 1015.7 0.0
27/01:00am 19.6 20.2 17.7 89 1.2 ESE 11 15 6 8 1016.3 1016.2 0.0
27/12:30am 19.8 19.6 17.6 87 1.3 ESE 15 17 8 9 1016.4 1016.3 0.0
27/12:00am 19.9 19.7 17.7 87 1.3 ESE 15 19 8 10 1016.6 1016.5 0.0
 
Date/Time
WST
Temp
°C
App
Temp
°C
Dew
Point
Rel
Hum
%
Delta-T
°C
Wind Press
QNH
hPa
Press
MSL
hPa
Rain
since 9 am
mm
Dir
 
Spd
km/h
Gust
km/h
Spd
kts
Gust
kts
26/11:30pm 19.6 19.7 18.4 93 0.7 ESE 15 17 8 9 1016.7 1016.6 0.0
26/11:00pm 19.5 20.7 19.0 97 0.3 ESE 11 13 6 7 1017.4 1017.3 0.0
26/10:30pm 19.7 21.9 19.5 99 0.1 ESE 7 9 4 5 1017.5 1017.4 0.0
26/10:00pm 19.9 21.8 19.7 99 0.1 ESE 9 11 5 6 1017.7 1017.6 0.0
26/09:30pm 20.4 21.9 19.7 96 0.4 ESE 11 13 6 7 1017.5 1017.4 0.0
26/09:00pm 20.9 22.9 20.7 99 0.1 ESE 11 13 6 7 1017.6 1017.5 0.0
26/08:30pm 21.0 23.1 21.0 100 0.0 ESE 11 13 6 7 1017.6 1017.5 0.0
26/08:00pm 21.4 23.9 21.1 98 0.2 E 9 9 5 5 1017.3 1017.2 0.0
26/07:30pm 21.7 24.2 21.0 96 0.5 E 9 11 5 6 1017.0 1016.9 0.0
26/07:00pm 22.2 24.2 20.8 92 0.9 ENE 11 13 6 7 1016.6 1016.5 0.0
26/06:30pm 22.7 24.1 20.4 87 1.5 ENE 13 15 7 8 1016.1 1016.0 0.0
26/06:00pm 23.2 24.4 20.0 82 2.1 ENE 13 15 7 8 1016.1 1016.0 0.0
26/05:30pm 24.0 24.5 19.3 75 3.0 ENE 15 19 8 10 1015.9 1015.8 0.0
26/05:00pm 24.5 24.4 18.7 70 3.7 ENE 17 20 9 11 1015.8 1015.7 0.0
26/04:30pm 25.0 24.1 18.2 66 4.3 ENE 20 24 11 13 1015.5 1015.4 0.0
26/04:00pm 25.3 24.5 18.5 66 4.3 ENE 20 26 11 14 1015.5 1015.4 0.0
26/03:30pm 25.7 24.4 18.1 63 4.8 ENE 22 30 12 16 1015.4 1015.3 0.0
26/03:00pm 26.0 24.4 18.4 63 4.8 ENE 24 30 13 16 1015.2 1015.1 0.0
26/02:30pm 25.7 24.4 18.1 63 4.8 ENE 22 30 12 16 1015.4 1015.3 0.0
26/02:00pm 26.9 25.7 18.5 60 5.4 ENE 22 32 12 17 1015.3 1015.2 0.0
26/01:30pm 26.3 25.5 18.4 61 5.0 ENE 20 26 11 14 1015.7 1015.6 0.0
26/01:00pm 25.9 24.4 16.7 57 5.7 E 20 33 11 18 1016.2 1016.1 0.0
26/12:30pm 25.7 24.2 16.8 58 5.5 E 20 28 11 15 1016.4 1016.3 0.0
26/12:00pm 25.5 23.5 16.4 57 5.6 E 22 30 12 16 1016.8 1016.7 0.0
26/11:30am 24.5 22.4 16.2 60 5.1 ESE 22 28 12 15 1017.2 1017.1 0.0
26/11:00am 23.6 21.4 15.9 62 4.7 E 22 30 12 16 1017.5 1017.4 0.0
26/10:30am 23.8 21.5 15.8 61 4.8 E 22 30 12 16 1017.8 1017.7 0.0
26/10:00am 23.4 20.7 15.5 61 4.7 ESE 24 32 13 17 1018.1 1018.0 0.0
26/09:30am 23.0 19.6 15.8 64 4.3 ESE 28 33 15 18 1018.2 1018.1 0.0
26/09:00am 21.9 19.2 15.7 68 3.7 ESE 24 33 13 18 1018.1 1018.0 2.8
26/08:30am 20.7 19.0 16.3 76 2.6 ESE 20 28 11 15 1017.8 1017.7 2.8
26/08:00am 19.8 18.0 15.9 78 2.3 ESE 20 30 11 16 1017.5 1017.4 2.8
26/07:30am 19.4 17.9 16.4 83 1.8 ESE 19 24 10 13 1017.1 1017.0 2.8
26/07:00am 18.3 17.2 16.3 88 1.2 ESE 17 22 9 12 1016.8 1016.7 2.8
26/06:30am 18.5 17.8 16.3 87 1.3 ESE 15 19 8 10 1016.7 1016.6 2.8
26/06:00am 18.2 18.3 16.5 90 1.0 SE 11 19 6 10 1016.8 1016.7 2.8
26/05:30am 18.0 17.5 16.0 88 1.2 SE 13 15 7 8 1016.6 1016.5 2.8
26/05:00am 18.3 17.8 15.9 86 1.4 SE 13 19 7 10 1016.4 1016.3 2.8
26/04:30am 18.0 17.2 16.0 88 1.2 SE 15 20 8 11 1016.3 1016.2 2.8
26/04:00am 18.1 17.0 16.4 90 1.0 SE 17 22 9 12 1016.1 1016.0 2.8
26/03:30am 17.9 17.4 16.8 93 0.7 SE 15 17 8 9 1016.3 1016.2 2.8
26/03:00am 17.9 17.8 16.9 94 0.6 SE 13 17 7 9 1016.4 1016.3 2.8
26/02:30am 17.9 17.5 17.1 95 0.5 SE 15 19 8 10 1016.6 1016.5 2.8
26/02:00am 18.4 18.0 17.2 93 0.7 ESE 15 19 8 10 1016.8 1016.7 2.8
26/01:30am 18.3 18.0 17.3 94 0.6 SE 15 19 8 10 1016.9 1016.8 2.8
26/01:00am 18.5 17.7 17.2 92 0.8 ESE 17 20 9 11 1017.0 1016.9 2.8
26/12:30am 18.8 18.1 17.3 91 0.9 SE 17 22 9 12 1017.2 1017.1 2.8
26/12:00am 18.8 18.2 17.5 92 0.8 SE 17 24 9 13 1017.6 1017.5 2.8
 
Date/Time
WST
Temp
°C
App
Temp
°C
Dew
Point
Rel
Hum
%
Delta-T
°C
Wind Press
QNH
hPa
Press
MSL
hPa
Rain
since 9 am
mm
Dir
 
Spd
km/h
Gust
km/h
Spd
kts
Gust
kts
25/11:30pm 18.6 18.4 17.6 94 0.6 SE 15 22 8 12 1017.7 1017.6 2.8
25/11:00pm 18.6 18.0 17.6 94 0.6 SE 17 24 9 13 1017.7 1017.6 2.8
25/10:30pm 18.7 17.6 17.7 94 0.6 SE 20 28 11 15 1017.5 1017.4 2.8
25/10:00pm 19.0 18.1 17.8 93 0.7 SE 19 24 10 13 1017.7 1017.6 2.8
25/09:30pm 19.0 18.0 18.0 94 0.6 SE 20 26 11 14 1017.8 1017.7 2.8
25/09:00pm 18.8 18.0 18.0 95 0.5 SE 19 26 10 14 1017.6 1017.5 2.8
25/08:30pm 18.9 18.1 17.9 94 0.6 SE 19 24 10 13 1017.7 1017.6 2.8
25/08:00pm 18.8 18.4 18.0 95 0.5 SE 17 22 9 12 1017.7 1017.6 2.8
25/07:30pm 18.7 18.2 17.9 95 0.5 SE 17 28 9 15 1017.3 1017.2 2.8
25/07:00pm 18.6 17.8 17.9 96 0.4 SE 19 26 10 14 1016.9 1016.8 2.8
25/06:30pm 18.6 18.1 17.9 96 0.4 SE 17 24 9 13 1016.4 1016.3 2.8
25/06:00pm 18.6 17.8 17.9 96 0.4 SE 19 24 10 13 1016.2 1016.1 2.8
25/05:30pm 18.7 17.1 17.5 93 0.7 SE 22 26 12 14 1015.8 1015.7 2.8
25/05:00pm 18.9 17.5 17.9 94 0.6 SE 22 30 12 16 1015.7 1015.6 2.8
25/04:30pm 19.0 18.0 18.0 94 0.6 SE 20 32 11 17 1015.7 1015.6 2.8
25/04:00pm 19.0 17.3 18.0 94 0.6 ESE 24 33 13 18 1015.5 1015.4 2.8
25/03:30pm 18.7 16.1 17.7 94 0.6 ESE 28 37 15 20 1015.5 1015.4 2.8
25/03:00pm 18.7 16.7 18.4 98 0.2 ESE 26 33 14 18 1015.4 1015.3 2.8
25/02:30pm 18.6 17.0 18.4 99 0.1 ESE 24 35 13 19 1015.4 1015.3 2.8
25/02:00pm 18.0 15.5 18.0 100 0.0 SE 28 35 15 19 1015.4 1015.3 2.8
25/01:30pm 17.8 15.6 17.8 100 0.0 ESE 26 33 14 18 1015.8 1015.7 2.8
25/01:00pm 17.3 14.1 17.3 100 0.0 ESE 30 35 16 19 1016.2 1016.1 2.8
25/12:30pm 17.3 14.9 17.3 100 0.0 ESE 26 37 14 20 1016.6 1016.5 1.0
25/12:00pm 17.2 13.6 17.2 100 0.0 ESE 32 43 17 23 1017.0 1016.9 0.6
25/11:30am 16.7 12.9 16.7 100 0.0 ESE 32 43 17 23 1017.1 1017.0 0.6
25/11:00am 16.5 13.4 16.5 100 0.0 ESE 28 39 15 21 1017.5 1017.4 0.6
25/10:30am 16.3 12.7 16.3 100 0.0 ESE 30 39 16 21 1018.1 1018.0 0.6
25/10:00am 16.4 12.3 16.4 100 0.0 ESE 33 43 18 23 1018.4 1018.3 0.6
25/09:30am 16.9 13.1 16.7 99 0.1 E 32 46 17 25 1018.6 1018.5 0.6
25/09:00am 17.1 13.6 16.5 96 0.4 E 30 39 16 21 1018.4 1018.3 12.6
25/08:30am 17.6 14.5 16.6 94 0.6 ESE 28 35 15 19 1017.9 1017.8 12.4
25/08:00am 17.3 14.1 16.3 94 0.6 ESE 28 35 15 19 1017.8 1017.7 12.4
25/07:30am 17.6 14.5 17.4 99 0.1 E 30 41 16 22 1017.7 1017.6 12.4
25/07:00am 17.7 15.4 17.7 100 0.0 E 26 32 14 17 1017.1 1017.0 12.4
25/06:30am 17.6 14.9 17.6 100 0.0 ESE 28 35 15 19 1016.8 1016.7 12.4
25/06:00am 17.6 15.3 17.6 100 0.0 ESE 26 33 14 18 1016.2 1016.1 12.4
25/05:30am 17.6 14.9 17.6 100 0.0 ESE 28 35 15 19 1015.7 1015.6 12.4
25/05:00am 17.7 16.6 17.7 100 0.0 ESE 20 28 11 15 1016.2 1016.1 12.4
25/04:30am 17.6 15.7 17.6 100 0.0 E 24 35 13 19 1015.8 1015.7 12.4
25/04:00am 17.5 15.9 17.5 100 0.0 ESE 22 28 12 15 1015.9 1015.8 12.4
25/03:30am 17.6 15.7 17.6 100 0.0 ESE 24 32 13 17 1015.7 1015.6 12.0
25/03:00am 17.7 16.2 17.7 100 0.0 ESE 22 30 12 16 1016.2 1016.1 11.4
25/02:30am 17.7 15.4 17.7 100 0.0 ESE 26 35 14 19 1016.1 1016.0 11.2
25/02:00am 17.8 16.0 17.8 100 0.0 ESE 24 32 13 17 1016.2 1016.1 11.0
25/01:30am 17.7 15.8 17.7 100 0.0 SE 24 30 13 16 1016.2 1016.1 10.6
25/01:00am 17.7 16.2 17.7 100 0.0 ESE 22 32 12 17 1016.5 1016.4 9.8
25/12:30am 18.0 16.3 18.0 100 0.0 ESE 24 30 13 16 1016.2 1016.1 9.2
25/12:00am 18.2 16.5 18.2 100 0.0 ESE 24 30 13 16 1016.5 1016.4 7.4
 
Date/Time
WST
Temp
°C
App
Temp
°C
Dew
Point
Rel
Hum
%
Delta-T
°C
Wind Press
QNH
hPa
Press
MSL
hPa
Rain
since 9 am
mm
Dir
 
Spd
km/h
Gust
km/h
Spd
kts
Gust
kts
24/11:30pm 18.6 17.5 18.6 100 0.0 E 22 30 12 16 1016.5 1016.4 5.4
24/11:00pm 18.9 18.5 18.9 100 0.0 E 19 26 10 14 1016.6 1016.5 4.8
24/10:30pm 19.2 18.7 19.2 100 0.0 ESE 20 33 11 18 1016.4 1016.3 4.8
24/10:00pm 19.4 19.2 19.4 100 0.0 ESE 19 24 10 13 1016.0 1015.9 4.6
24/09:30pm 19.5 19.8 19.5 100 0.0 ESE 17 20 9 11 1016.6 1016.5 4.6
24/09:00pm 19.4 19.6 19.4 100 0.0 ESE 17 20 9 11 1016.8 1016.7 4.6
24/08:30pm 19.4 19.6 19.4 100 0.0 ESE 17 24 9 13 1016.5 1016.4 4.6
24/08:00pm 19.3 20.2 19.3 100 0.0 SE 13 20 7 11 1016.4 1016.3 4.6
24/07:30pm 19.2 19.3 19.2 100 0.0 SE 17 22 9 12 1016.4 1016.3 4.6
24/07:00pm 19.0 18.9 18.8 99 0.1 SE 17 22 9 12 1016.1 1016.0 4.4
24/06:30pm 19.2 18.8 19.0 99 0.1 ESE 19 26 10 14 1016.0 1015.9 4.4
24/06:00pm 19.9 20.0 19.9 100 0.0 ESE 19 24 10 13 1015.9 1015.8 4.4
24/05:30pm 20.1 20.6 20.1 100 0.0 ESE 17 22 9 12 1015.9 1015.8 4.4
24/05:00pm 20.5 20.8 20.5 100 0.0 ESE 19 24 10 13 1015.6 1015.5 4.2
24/04:30pm 20.8 21.1 20.8 100 0.0 E 20 28 11 15 1015.0 1014.9 4.0
24/04:00pm 20.8 21.7 20.8 100 0.0 SE 17 20 9 11 1015.2 1015.1 4.0
24/03:30pm 20.9 21.8 20.9 100 0.0 E 17 19 9 10 1015.1 1015.0 3.0
24/03:00pm 21.0 22.4 21.0 100 0.0 E 15 19 8 10 1015.3 1015.2 2.8
24/02:30pm 21.1 22.9 21.1 100 0.0 E 13 15 7 8 1015.2 1015.1 2.0
24/02:00pm 21.0 22.7 21.0 100 0.0 E 13 17 7 9 1015.2 1015.1 1.8
24/01:30pm 21.0 22.4 21.0 100 0.0 ESE 15 19 8 10 1015.1 1015.0 1.8
24/01:00pm 21.1 22.1 21.1 100 0.0 ENE 17 20 9 11 1015.9 1015.8 1.6
24/12:30pm 21.2 21.9 21.2 100 0.0 ENE 19 24 10 13 1016.2 1016.1 1.0
24/12:00pm 21.7 22.4 21.5 99 0.1 ENE 20 26 11 14 1016.5 1016.4 0.0
24/11:30am 22.3 23.5 21.5 95 0.5 E 17 19 9 10 1016.1 1016.0 0.0
24/11:00am 22.2 23.0 20.7 91 1.0 ESE 17 20 9 11 1016.2 1016.1 0.0
24/10:30am 22.3 23.4 20.4 89 1.2 ESE 15 20 8 11 1016.6 1016.5 0.0
24/10:00am 21.8 23.3 20.6 93 0.8 ENE 13 17 7 9 1017.0 1016.9 0.0

Other Formats:

Comma delimited format used in spreadsheet applications
http://www.bom.gov.au/fwo/IDW60801/IDW60801.94308.axf

JavaScript Object Notation format (JSON) in row-major order
http://www.bom.gov.au/fwo/IDW60801/IDW60801.94308.json